Time,TemperatureF,DewpointF,PressureIn,WindDirection,WindDirectionDegrees,WindSpeedMPH,WindSpeedGustMPH,Humidity,HourlyPrecipIn,Conditions,Clouds,dailyrainin,SoftwareType,DateUTC
2013-04-01 00:01:00,44.4,26.5,29.91,WSW,238,0.0,0.0,49,0.00,,,0.00,WeatherCatV1.12B45,2013-04-01 07:01:00,
2013-04-01 00:06:00,44.1,26.1,29.91,South,191,0.0,0.0,49,0.00,,,0.00,WeatherCatV1.12B45,2013-04-01 07:06:00,
2013-04-01 00:11:00,44.1,26.6,29.91,South,191,0.0,0.0,50,0.00,,,0.00,WeatherCatV1.12B45,2013-04-01 07:11:00,
2013-04-01 00:16:00,44.2,26.8,29.91,South,191,0.0,0.0,50,0.00,,,0.00,WeatherCatV1.12B45,2013-04-01 07:16:00,
2013-04-01 00:21:00,44.1,26.6,29.91,South,191,0.0,0.0,50,0.00,,,0.00,WeatherCatV1.12B45,2013-04-01 07:21:00,
2013-04-01 00:26:00,44.1,26.6,29.91,South,191,0.0,0.0,50,0.00,,,0.00,WeatherCatV1.12B45,2013-04-01 07:26:00,
2013-04-01 00:31:00,43.9,26.5,29.91,South,191,0.0,0.0,50,0.00,,,0.00,WeatherCatV1.12B45,2013-04-01 07:31:00,
2013-04-01 00:36:00,43.7,26.3,29.91,South,191,0.0,0.0,50,0.00,,,0.00,WeatherCatV1.12B45,2013-04-01 07:36:00,
2013-04-01 00:41:00,43.5,26.1,29.91,South,191,0.0,0.0,50,0.00,,,0.00,WeatherCatV1.12B45,2013-04-01 07:41:00,
2013-04-01 00:46:00,43.3,26.0,29.91,South,191,0.0,0.0,50,0.00,,,0.00,WeatherCatV1.12B45,2013-04-01 07:46:00,
2013-04-01 00:51:00,43.0,26.1,29.91,South,191,0.0,0.0,51,0.00,,,0.00,WeatherCatV1.12B45,2013-04-01 07:51:00,
2013-04-01 00:56:00,42.8,26.4,29.91,South,191,0.0,0.0,52,0.00,,,0.00,WeatherCatV1.12B45,2013-04-01 07:56:00,
2013-04-01 01:01:00,43.3,26.4,29.91,South,191,0.0,0.0,51,0.00,,,0.00,WeatherCatV1.12B45,2013-04-01 08:01:00,
2013-04-01 01:06:00,43.5,26.6,29.91,South,191,0.0,0.0,51,0.00,,,0.00,WeatherCatV1.12B45,2013-04-01 08:06:00,
2013-04-01 01:11:00,43.0,25.6,29.91,South,191,0.0,0.0,50,0.00,,,0.00,WeatherCatV1.12B45,2013-04-01 08:11:00,
2013-04-01 01:16:00,42.3,25.4,29.91,South,191,0.0,0.0,51,0.00,,,0.00,WeatherCatV1.12B45,2013-04-01 08:16:00,
2013-04-01 01:21:00,41.7,25.9,29.91,South,191,0.0,0.0,53,0.00,,,0.00,WeatherCatV1.12B45,2013-04-01 08:21:00,
2013-04-01 01:26:00,41.4,26.0,29.91,South,191,0.0,0.0,54,0.00,,,0.00,WeatherCatV1.12B45,2013-04-01 08:26:00,
2013-04-01 01:31:00,41.2,26.7,29.94,South,191,0.0,0.0,56,0.00,,,0.00,WeatherCatV1.12B45,2013-04-01 08:31:00,
2013-04-01 01:36:00,41.2,26.7,29.94,South,191,0.0,0.0,56,0.00,,,0.00,WeatherCatV1.12B45,2013-04-01 08:36:00,
2013-04-01 01:41:00,41.4,27.3,29.94,South,191,0.0,0.0,57,0.00,,,0.00,WeatherCatV1.12B45,2013-04-01 08:41:00,
2013-04-01 01:46:00,41.4,26.9,29.91,South,191,0.0,0.0,56,0.00,,,0.00,WeatherCatV1.12B45,2013-04-01 08:46:00,
2013-04-01 01:51:00,41.4,26.9,29.91,South,191,0.0,0.0,56,0.00,,,0.00,WeatherCatV1.12B45,2013-04-01 08:51:00,
2013-04-01 01:56:00,41.5,27.0,29.91,South,191,0.0,0.0,56,0.00,,,0.00,WeatherCatV1.12B45,2013-04-01 08:56:00,
2013-04-01 02:01:00,41.5,27.0,29.91,South,191,0.0,0.0,56,0.00,,,0.00,WeatherCatV1.12B45,2013-04-01 09:01:00,
2013-04-01 02:06:00,41.5,27.0,29.91,South,191,0.0,0.0,56,0.00,,,0.00,WeatherCatV1.12B45,2013-04-01 09:06:00,
2013-04-01 02:11:00,41.4,26.4,29.91,South,191,0.0,0.0,55,0.00,,,0.00,WeatherCatV1.12B45,2013-04-01 09:11:00,
2013-04-01 02:16:00,41.2,26.7,29.91,South,191,0.0,0.0,56,0.00,,,0.00,WeatherCatV1.12B45,2013-04-01 09:16:00,
2013-04-01 02:21:00,41.2,27.1,29.91,South,191,0.0,0.0,57,0.00,,,0.00,WeatherCatV1.12B45,2013-04-01 09:21:00,
2013-04-01 02:26:00,40.8,26.4,29.91,South,191,0.0,0.0,56,0.00,,,0.00,WeatherCatV1.12B45,2013-04-01 09:26:00,
2013-04-01 02:31:00,40.3,25.8,29.91,South,191,0.0,0.0,56,0.00,,,0.00,WeatherCatV1.12B45,2013-04-01 09:31:00,
2013-04-01 02:36:00,39.9,25.9,29.91,South,191,0.0,0.0,57,0.00,,,0.00,WeatherCatV1.12B45,2013-04-01 09:36:00,
2013-04-01 02:41:00,39.7,26.2,29.91,South,191,0.0,0.0,58,0.00,,,0.00,WeatherCatV1.12B45,2013-04-01 09:41:00,
2013-04-01 02:46:00,39.6,26.4,29.91,South,191,0.0,0.0,59,0.00,,,0.00,WeatherCatV1.12B45,2013-04-01 09:46:00,
2013-04-01 02:51:00,39.6,27.2,29.91,South,191,0.0,0.0,61,0.00,,,0.00,WeatherCatV1.12B45,2013-04-01 09:51:00,
2013-04-01 02:56:00,39.4,27.1,29.91,South,191,0.0,0.0,61,0.00,,,0.00,WeatherCatV1.12B45,2013-04-01 09:56:00,
2013-04-01 03:01:00,39.4,27.5,29.94,South,191,0.0,0.0,62,0.00,,,0.00,WeatherCatV1.12B45,2013-04-01 10:01:00,
2013-04-01 03:06:00,39.4,27.8,29.94,South,191,0.0,0.0,63,0.00,,,0.00,WeatherCatV1.12B45,2013-04-01 10:06:00,
2013-04-01 03:11:00,39.4,28.2,29.94,SSW,203,0.0,0.0,64,0.00,,,0.00,WeatherCatV1.12B45,2013-04-01 10:11:00,
2013-04-01 03:16:00,39.4,28.6,29.91,SSW,203,0.0,0.0,65,0.00,,,0.00,WeatherCatV1.12B45,2013-04-01 10:16:00,
2013-04-01 03:21:00,39.4,29.0,29.91,SSW,203,0.0,0.0,66,0.00,,,0.00,WeatherCatV1.12B45,2013-04-01 10:21:00,
2013-04-01 03:26:00,39.7,29.3,29.91,SSW,203,0.0,0.0,66,0.00,,,0.00,WeatherCatV1.12B45,2013-04-01 10:26:00,
2013-04-01 03:31:00,39.9,29.5,29.91,SSW,203,0.0,0.0,66,0.00,,,0.00,WeatherCatV1.12B45,2013-04-01 10:31:00,
2013-04-01 03:36:00,39.9,29.1,29.91,SSW,203,0.0,0.0,65,0.00,,,0.00,WeatherCatV1.12B45,2013-04-01 10:36:00,
2013-04-01 03:41:00,39.9,29.1,29.91,SSW,203,0.0,0.0,65,0.00,,,0.00,WeatherCatV1.12B45,2013-04-01 10:41:00,
2013-04-01 03:46:00,39.7,29.0,29.91,SSW,203,0.0,0.0,65,0.00,,,0.00,WeatherCatV1.12B45,2013-04-01 10:46:00,
2013-04-01 03:51:00,39.9,29.5,29.91,SSW,203,0.0,0.0,66,0.00,,,0.00,WeatherCatV1.12B45,2013-04-01 10:51:00,
2013-04-01 03:56:00,39.4,28.2,29.91,SSW,203,0.0,0.0,64,0.00,,,0.00,WeatherCatV1.12B45,2013-04-01 10:56:00,
2013-04-01 04:01:00,39.0,28.3,29.91,SSW,203,0.0,0.0,65,0.00,,,0.00,WeatherCatV1.12B45,2013-04-01 11:01:00,
2013-04-01 04:06:00,38.8,28.1,29.91,SSW,203,0.0,0.0,65,0.00,,,0.00,WeatherCatV1.12B45,2013-04-01 11:06:00,
2013-04-01 04:11:00,38.8,28.8,29.91,SSW,203,0.0,0.0,67,0.00,,,0.00,WeatherCatV1.12B45,2013-04-01 11:11:00,
2013-04-01 04:16:00,38.8,28.8,29.94,SSW,203,0.0,0.0,67,0.00,,,0.00,WeatherCatV1.12B45,2013-04-01 11:16:00,
2013-04-01 04:21:00,38.8,28.8,29.94,SSW,203,0.0,0.0,67,0.00,,,0.00,WeatherCatV1.12B45,2013-04-01 11:21:00,
2013-04-01 04:26:00,39.0,29.4,29.94,SSW,203,0.0,0.0,68,0.00,,,0.00,WeatherCatV1.12B45,2013-04-01 11:26:00,
2013-04-01 04:31:00,38.8,28.8,29.91,SSW,203,0.0,0.0,67,0.00,,,0.00,WeatherCatV1.12B45,2013-04-01 11:31:00,
2013-04-01 04:36:00,38.7,28.7,29.91,SSW,203,0.0,0.0,67,0.00,,,0.00,WeatherCatV1.12B45,2013-04-01 11:36:00,
2013-04-01 04:41:00,38.7,29.0,29.91,SSW,203,0.0,0.0,68,0.00,,,0.00,WeatherCatV1.12B45,2013-04-01 11:41:00,
2013-04-01 04:46:00,38.7,29.0,29.94,SSW,203,0.0,0.0,68,0.00,,,0.00,WeatherCatV1.12B45,2013-04-01 11:46:00,
2013-04-01 04:51:00,38.7,29.0,29.94,SSW,203,0.0,0.0,68,0.00,,,0.00,WeatherCatV1.12B45,2013-04-01 11:51:00,
2013-04-01 04:56:00,38.7,28.7,29.94,SSW,203,0.0,0.0,67,0.00,,,0.00,WeatherCatV1.12B45,2013-04-01 11:56:00,
2013-04-01 05:01:00,38.7,28.7,29.94,SSW,203,0.0,0.0,67,0.00,,,0.00,WeatherCatV1.12B45,2013-04-01 12:01:00,
2013-04-01 05:06:00,38.5,28.5,29.94,SSW,203,0.0,0.0,67,0.00,,,0.00,WeatherCatV1.12B45,2013-04-01 12:06:00,
2013-04-01 05:11:00,38.3,28.3,29.94,SSW,203,0.0,0.0,67,0.00,,,0.00,WeatherCatV1.12B45,2013-04-01 12:11:00,
2013-04-01 05:16:00,38.3,28.3,29.94,SSW,203,0.0,0.0,67,0.00,,,0.00,WeatherCatV1.12B45,2013-04-01 12:16:00,
2013-04-01 05:21:00,38.1,27.8,29.94,SSW,203,0.0,0.0,66,0.00,,,0.00,WeatherCatV1.12B45,2013-04-01 12:21:00,
2013-04-01 05:26:00,37.6,27.3,29.94,SSW,203,0.0,0.0,66,0.00,,,0.00,WeatherCatV1.12B45,2013-04-01 12:26:00,
2013-04-01 05:31:00,37.4,27.1,29.91,SSW,203,0.0,0.0,66,0.00,,,0.00,WeatherCatV1.12B45,2013-04-01 12:31:00,
2013-04-01 05:36:00,37.0,27.1,29.91,SSW,203,0.0,0.0,67,0.00,,,0.00,WeatherCatV1.12B45,2013-04-01 12:36:00,
2013-04-01 05:41:00,37.0,27.5,29.91,SSW,203,0.0,0.0,68,0.00,,,0.00,WeatherCatV1.12B45,2013-04-01 12:41:00,
2013-04-01 05:46:00,37.4,28.2,29.94,SSW,203,0.0,0.0,69,0.00,,,0.00,WeatherCatV1.12B45,2013-04-01 12:46:00,
2013-04-01 05:52:00,37.6,28.7,29.94,SSW,203,0.0,0.0,70,0.00,,,0.00,WeatherCatV1.12B45,2013-04-01 12:52:00,
2013-04-01 05:56:00,37.6,28.7,29.94,SSW,203,0.0,0.0,70,0.00,,,0.00,WeatherCatV1.12B45,2013-04-01 12:56:00,
2013-04-01 06:01:00,37.4,28.5,29.94,SSW,203,0.0,0.0,70,0.00,,,0.00,WeatherCatV1.12B45,2013-04-01 13:01:00,
2013-04-01 06:06:00,36.7,27.1,29.94,SSW,203,0.0,0.0,68,0.00,,,0.00,WeatherCatV1.12B45,2013-04-01 13:06:00,
2013-04-01 06:11:00,36.1,26.6,29.94,SSW,203,0.0,0.0,68,0.00,,,0.00,WeatherCatV1.12B45,2013-04-01 13:11:00,
2013-04-01 06:16:00,36.1,27.3,29.94,SSW,203,0.0,0.0,70,0.00,,,0.00,WeatherCatV1.12B45,2013-04-01 13:16:00,
2013-04-01 06:22:00,36.1,27.3,29.94,SSW,203,0.0,0.0,70,0.00,,,0.00,WeatherCatV1.12B45,2013-04-01 13:22:00,
2013-04-01 06:27:00,36.0,27.5,29.94,SSW,203,0.0,0.0,71,0.00,,,0.00,WeatherCatV1.12B45,2013-04-01 13:27:00,
2013-04-01 06:32:00,36.1,28.0,29.94,SSW,203,0.0,0.0,72,0.00,,,0.00,WeatherCatV1.12B45,2013-04-01 13:32:00,
2013-04-01 06:37:00,36.3,28.5,29.94,SSW,203,0.0,0.0,73,0.00,,,0.00,WeatherCatV1.12B45,2013-04-01 13:37:00,
2013-04-01 06:42:00,36.9,29.0,29.94,SSW,203,0.0,0.0,73,0.00,,,0.00,WeatherCatV1.12B45,2013-04-01 13:42:00,
2013-04-01 06:47:00,36.9,29.0,29.94,SSW,203,0.0,0.0,73,0.00,,,0.00,WeatherCatV1.12B45,2013-04-01 13:47:00,
2013-04-01 06:52:00,36.7,28.5,29.94,SSW,203,0.0,0.0,72,0.00,,,0.00,WeatherCatV1.12B45,2013-04-01 13:52:00,
2013-04-01 06:57:00,36.3,28.5,29.94,SSW,203,0.0,0.0,73,0.00,,,0.00,WeatherCatV1.12B45,2013-04-01 13:57:00,
2013-04-01 07:02:00,36.3,28.5,29.94,SSW,203,0.0,0.0,73,0.00,,,0.00,WeatherCatV1.12B45,2013-04-01 14:02:00,
2013-04-01 07:07:00,36.1,28.3,29.94,SSW,203,0.0,0.0,73,0.00,,,0.00,WeatherCatV1.12B45,2013-04-01 14:07:00,
2013-04-01 07:12:00,36.1,28.3,29.94,SSW,203,0.0,0.0,73,0.00,,,0.00,WeatherCatV1.12B45,2013-04-01 14:12:00,
2013-04-01 07:17:00,36.1,28.3,29.94,SSW,203,0.0,0.0,73,0.00,,,0.00,WeatherCatV1.12B45,2013-04-01 14:17:00,
2013-04-01 07:22:00,36.0,28.5,29.94,SSW,203,0.0,0.0,74,0.00,,,0.00,WeatherCatV1.12B45,2013-04-01 14:22:00,
2013-04-01 07:27:00,36.1,28.7,29.94,SSW,203,0.0,0.0,74,0.00,,,0.00,WeatherCatV1.12B45,2013-04-01 14:27:00,
2013-04-01 07:32:00,36.7,29.5,29.94,SSW,203,0.0,0.0,75,0.00,,,0.00,WeatherCatV1.12B45,2013-04-01 14:32:00,
2013-04-01 07:37:00,37.2,30.0,29.94,SSW,203,0.0,0.0,75,0.00,,,0.00,WeatherCatV1.12B45,2013-04-01 14:37:00,
2013-04-01 07:42:00,37.6,30.4,29.94,SSW,203,0.0,0.0,75,0.00,,,0.00,WeatherCatV1.12B45,2013-04-01 14:42:00,
2013-04-01 07:47:00,38.1,30.9,29.94,SSW,203,0.0,0.0,75,0.00,,,0.00,WeatherCatV1.12B45,2013-04-01 14:47:00,
2013-04-01 07:52:00,38.5,31.6,29.94,SSW,203,0.0,0.0,76,0.00,,,0.00,WeatherCatV1.12B45,2013-04-01 14:52:00,
2013-04-01 07:57:00,38.7,31.4,29.94,SSW,203,0.0,0.0,75,0.00,,,0.00,WeatherCatV1.12B45,2013-04-01 14:57:00,
2013-04-01 08:02:00,39.0,31.4,29.94,SSW,203,0.0,0.0,74,0.00,,,0.00,WeatherCatV1.12B45,2013-04-01 15:02:00,
2013-04-01 08:07:00,39.6,32.0,29.94,SSW,203,0.0,0.0,74,0.00,,,0.00,WeatherCatV1.12B45,2013-04-01 15:07:00,
2013-04-01 08:12:00,40.1,31.5,29.94,NNW,343,0.0,0.0,71,0.00,,,0.00,WeatherCatV1.12B45,2013-04-01 15:12:00,
2013-04-01 08:17:00,41.4,31.6,29.94,NNW,336,0.0,3.6,68,0.00,,,0.00,WeatherCatV1.12B45,2013-04-01 15:17:00,
2013-04-01 08:22:00,42.3,31.7,29.94,NNW,336,0.0,0.0,66,0.00,,,0.00,WeatherCatV1.12B45,2013-04-01 15:22:00,
2013-04-01 08:27:00,42.4,31.5,29.94,NNW,336,0.0,0.0,65,0.00,,,0.00,WeatherCatV1.12B45,2013-04-01 15:27:00,
2013-04-01 08:32:00,43.0,30.5,29.94,NW,319,0.0,0.0,61,0.00,,,0.00,WeatherCatV1.12B45,2013-04-01 15:32:00,
2013-04-01 08:37:00,43.3,30.0,29.94,NW,304,3.6,3.6,59,0.00,,,0.00,WeatherCatV1.12B45,2013-04-01 15:37:00,
2013-04-01 08:42:00,43.5,29.3,29.94,NNE,19,0.0,2.2,57,0.00,,,0.00,WeatherCatV1.12B45,2013-04-01 15:42:00,
2013-04-01 08:47:00,43.9,26.0,29.94,ENE,62,0.0,4.0,49,0.00,,,0.00,WeatherCatV1.12B45,2013-04-01 15:47:00,
2013-04-01 08:52:00,44.2,26.3,29.94,ENE,62,0.0,0.0,49,0.00,,,0.00,WeatherCatV1.12B45,2013-04-01 15:52:00,
2013-04-01 08:57:00,44.8,25.3,29.94,ENE,60,3.1,3.1,46,0.00,,,0.00,WeatherCatV1.12B45,2013-04-01 15:57:00,
2013-04-01 09:02:00,45.1,25.1,29.94,NE,49,3.6,4.9,45,0.00,,,0.00,WeatherCatV1.12B45,2013-04-01 16:02:00,
2013-04-01 09:07:00,45.5,25.4,29.94,NNE,17,0.0,0.0,45,0.00,,,0.00,WeatherCatV1.12B45,2013-04-01 16:07:00,
2013-04-01 09:12:00,45.9,25.2,29.94,NE,50,3.1,3.1,44,0.00,,,0.00,WeatherCatV1.12B45,2013-04-01 16:12:00,
2013-04-01 09:17:00,46.0,25.4,29.97,NNE,15,3.1,3.1,44,0.00,,,0.00,WeatherCatV1.12B45,2013-04-01 16:17:00,
2013-04-01 09:22:00,46.0,24.8,29.97,ENE,71,4.5,4.9,43,0.00,,,0.00,WeatherCatV1.12B45,2013-04-01 16:22:00,
2013-04-01 09:27:00,46.4,25.1,29.97,ENE,76,0.0,0.0,43,0.00,,,0.00,WeatherCatV1.12B45,2013-04-01 16:27:00,
2013-04-01 09:32:00,46.9,25.1,29.97,ENE,76,0.0,0.0,42,0.00,,,0.00,WeatherCatV1.12B45,2013-04-01 16:32:00,
2013-04-01 09:37:00,47.3,24.8,29.97,NNE,29,0.0,0.0,41,0.00,,,0.00,WeatherCatV1.12B45,2013-04-01 16:37:00,
2013-04-01 09:42:00,47.3,24.2,29.97,North,0,2.2,3.1,40,0.00,,,0.00,WeatherCatV1.12B45,2013-04-01 16:42:00,
2013-04-01 09:47:00,47.5,24.4,29.94,WNW,300,0.0,0.0,40,0.00,,,0.00,WeatherCatV1.12B45,2013-04-01 16:47:00,
2013-04-01 09:52:00,48.2,24.4,29.94,ENE,74,0.0,0.0,39,0.00,,,0.00,WeatherCatV1.12B45,2013-04-01 16:52:00,
2013-04-01 09:57:00,48.7,24.9,29.94,NE,46,0.0,0.0,39,0.00,,,0.00,WeatherCatV1.12B45,2013-04-01 16:57:00,
2013-04-01 10:02:00,49.5,24.9,29.97,ENE,57,2.2,3.1,38,0.00,,,0.00,WeatherCatV1.12B45,2013-04-01 17:02:00,
2013-04-01 10:07:00,50.4,25.1,29.97,NE,39,3.6,4.9,37,0.00,,,0.00,WeatherCatV1.12B45,2013-04-01 17:07:00,
2013-04-01 10:12:00,51.6,26.9,29.97,SSE,162,0.0,3.1,38,0.00,,,0.00,WeatherCatV1.12B45,2013-04-01 17:12:00,
2013-04-01 10:17:00,52.9,26.7,29.97,East,79,0.0,0.0,36,0.00,,,0.00,WeatherCatV1.12B45,2013-04-01 17:17:00,
2013-04-01 10:22:00,53.4,27.1,29.97,NNW,338,0.0,0.0,36,0.00,,,0.00,WeatherCatV1.12B45,2013-04-01 17:22:00,
2013-04-01 10:27:00,54.1,27.1,29.97,NE,36,0.0,0.0,35,0.00,,,0.00,WeatherCatV1.12B45,2013-04-01 17:27:00,
2013-04-01 10:32:00,54.5,26.7,29.97,NE,54,3.6,4.0,34,0.00,,,0.00,WeatherCatV1.12B45,2013-04-01 17:32:00,
2013-04-01 10:37:00,55.0,27.2,29.97,ENE,61,0.0,0.0,34,0.00,,,0.00,WeatherCatV1.12B45,2013-04-01 17:37:00,
2013-04-01 10:42:00,55.8,27.1,29.97,NNE,23,0.0,4.5,33,0.00,,,0.00,WeatherCatV1.12B45,2013-04-01 17:42:00,
2013-04-01 10:47:00,56.1,25.9,29.97,NE,49,2.2,4.9,31,0.00,,,0.00,WeatherCatV1.12B45,2013-04-01 17:47:00,
2013-04-01 10:52:00,56.7,26.4,29.97,ENE,78,0.0,3.1,31,0.00,,,0.00,WeatherCatV1.12B45,2013-04-01 17:52:00,
2013-04-01 10:57:00,57.0,26.7,29.97,NNE,18,0.0,2.7,31,0.00,,,0.00,WeatherCatV1.12B45,2013-04-01 17:57:00,
2013-04-01 11:02:00,58.1,27.6,29.97,NNE,21,2.2,2.7,31,0.00,,,0.00,WeatherCatV1.12B45,2013-04-01 18:02:00,
2013-04-01 11:07:00,58.3,27.0,29.97,NNE,21,0.0,0.0,30,0.00,,,0.00,WeatherCatV1.12B45,2013-04-01 18:07:00,
2013-04-01 11:12:00,58.1,26.0,29.97,ESE,123,0.0,2.7,29,0.00,,,0.00,WeatherCatV1.12B45,2013-04-01 18:12:00,
2013-04-01 11:17:00,57.7,26.5,29.97,ENE,70,3.1,3.1,30,0.00,,,0.00,WeatherCatV1.12B45,2013-04-01 18:17:00,
2013-04-01 11:22:00,57.7,26.5,29.97,East,84,0.0,0.0,30,0.00,,,0.00,WeatherCatV1.12B45,2013-04-01 18:22:00,
2013-04-01 11:27:00,57.9,25.9,29.97,WNW,287,0.0,3.1,29,0.00,,,0.00,WeatherCatV1.12B45,2013-04-01 18:27:00,
2013-04-01 11:32:00,57.9,25.9,29.97,West,261,0.0,0.0,29,0.00,,,0.00,WeatherCatV1.12B45,2013-04-01 18:32:00,
2013-04-01 11:37:00,58.1,26.0,29.97,NW,324,0.0,0.0,29,0.00,,,0.00,WeatherCatV1.12B45,2013-04-01 18:37:00,
2013-04-01 11:42:00,58.1,26.0,29.97,ESE,107,0.0,0.0,29,0.00,,,0.00,WeatherCatV1.12B45,2013-04-01 18:42:00,
2013-04-01 11:47:00,58.5,25.5,29.97,NNE,33,3.1,3.1,28,0.00,,,0.00,WeatherCatV1.12B45,2013-04-01 18:47:00,
2013-04-01 11:52:00,59.0,25.9,29.97,NNE,29,2.7,5.8,28,0.00,,,0.00,WeatherCatV1.12B45,2013-04-01 18:52:00,
2013-04-01 11:57:00,59.0,25.1,29.97,ENE,69,2.7,5.4,27,0.00,,,0.00,WeatherCatV1.12B45,2013-04-01 18:57:00,
2013-04-01 12:02:00,59.2,25.2,29.97,NE,43,0.0,0.0,27,0.00,,,0.00,WeatherCatV1.12B45,2013-04-01 19:02:00,
2013-04-01 12:07:00,59.7,24.8,29.97,NW,320,0.0,0.0,26,0.00,,,0.00,WeatherCatV1.12B45,2013-04-01 19:07:00,
2013-04-01 12:12:00,60.1,24.2,29.97,East,79,3.6,3.6,25,0.00,,,0.00,WeatherCatV1.12B45,2013-04-01 19:12:00,
2013-04-01 12:17:00,60.8,24.8,29.97,NE,49,2.2,4.0,25,0.00,,,0.00,WeatherCatV1.12B45,2013-04-01 19:17:00,
2013-04-01 12:22:00,61.3,25.2,29.97,North,10,2.7,3.6,25,0.00,,,0.00,WeatherCatV1.12B45,2013-04-01 19:22:00,
2013-04-01 12:27:00,61.7,24.5,29.97,ENE,60,0.0,0.0,24,0.00,,,0.00,WeatherCatV1.12B45,2013-04-01 19:27:00,
2013-04-01 12:32:00,62.2,25.0,29.97,East,82,2.7,2.7,24,0.00,,,0.00,WeatherCatV1.12B45,2013-04-01 19:32:00,
2013-04-01 12:37:00,62.6,25.3,29.97,NNE,24,2.7,4.0,24,0.00,,,0.00,WeatherCatV1.12B45,2013-04-01 19:37:00,
2013-04-01 12:42:00,63.1,25.8,29.97,NW,323,4.0,4.9,24,0.00,,,0.00,WeatherCatV1.12B45,2013-04-01 19:42:00,
2013-04-01 12:47:00,63.5,26.1,29.97,ENE,77,2.7,4.5,24,0.00,,,0.00,WeatherCatV1.12B45,2013-04-01 19:47:00,
2013-04-01 12:52:00,64.0,26.5,29.97,SSW,203,2.7,4.9,24,0.00,,,0.00,WeatherCatV1.12B45,2013-04-01 19:52:00,
2013-04-01 12:57:00,64.2,26.7,29.97,ENE,68,3.6,4.0,24,0.00,,,0.00,WeatherCatV1.12B45,2013-04-01 19:57:00,
2013-04-01 13:03:00,64.4,25.8,29.94,NE,43,2.2,3.6,23,0.00,,,0.00,WeatherCatV1.12B45,2013-04-01 20:03:00,
2013-04-01 13:08:00,64.6,26.0,29.94,East,85,2.7,2.7,23,0.00,,,0.00,WeatherCatV1.12B45,2013-04-01 20:08:00,
2013-04-01 13:13:00,64.9,26.3,29.94,North,10,4.0,4.0,23,0.00,,,0.00,WeatherCatV1.12B45,2013-04-01 20:13:00,
2013-04-01 13:18:00,65.3,26.6,29.94,ENE,74,2.2,3.1,23,0.00,,,0.00,WeatherCatV1.12B45,2013-04-01 20:18:00,
2013-04-01 13:23:00,65.5,23.4,29.94,NE,40,0.0,0.0,20,0.00,,,0.00,WeatherCatV1.12B45,2013-04-01 20:23:00,
2013-04-01 13:28:00,66.0,23.8,29.94,NNE,23,0.0,0.0,20,0.00,,,0.00,WeatherCatV1.12B45,2013-04-01 20:28:00,
2013-04-01 13:33:00,66.2,23.9,29.94,NE,52,2.7,3.6,20,0.00,,,0.00,WeatherCatV1.12B45,2013-04-01 20:33:00,
2013-04-01 13:38:00,66.2,23.9,29.94,NE,36,4.0,4.0,20,0.00,,,0.00,WeatherCatV1.12B45,2013-04-01 20:38:00,
2013-04-01 13:43:00,66.4,24.1,29.94,NNE,28,3.1,4.9,20,0.00,,,0.00,WeatherCatV1.12B45,2013-04-01 20:43:00,
2013-04-01 13:48:00,66.7,24.4,29.94,West,276,0.0,3.1,20,0.00,,,0.00,WeatherCatV1.12B45,2013-04-01 20:48:00,
2013-04-01 13:53:00,67.3,24.8,29.94,North,8,2.7,3.1,20,0.00,,,0.00,WeatherCatV1.12B45,2013-04-01 20:53:00,
2013-04-01 13:58:00,67.5,21.1,29.94,NE,43,0.0,0.0,17,0.00,,,0.00,WeatherCatV1.12B45,2013-04-01 20:58:00,
2013-04-01 14:03:00,67.3,21.0,29.94,NE,49,3.6,5.4,17,0.00,,,0.00,WeatherCatV1.12B45,2013-04-01 21:03:00,
2013-04-01 14:08:00,67.3,21.0,29.94,NNE,26,2.2,2.7,17,0.00,,,0.00,WeatherCatV1.12B45,2013-04-01 21:08:00,
2013-04-01 14:13:00,67.5,21.1,29.94,SE,124,3.6,5.8,17,0.00,,,0.00,WeatherCatV1.12B45,2013-04-01 21:13:00,
2013-04-01 14:18:00,67.6,21.3,29.94,South,183,0.0,2.7,17,0.00,,,0.00,WeatherCatV1.12B45,2013-04-01 21:18:00,
2013-04-01 14:23:00,67.8,21.4,29.94,SE,137,0.0,0.0,17,0.00,,,0.00,WeatherCatV1.12B45,2013-04-01 21:23:00,
2013-04-01 14:28:00,67.6,21.3,29.94,East,84,0.0,0.0,17,0.00,,,0.00,WeatherCatV1.12B45,2013-04-01 21:28:00,
2013-04-01 14:33:00,67.8,21.4,29.94,North,0,0.0,0.0,17,0.00,,,0.00,WeatherCatV1.12B45,2013-04-01 21:33:00,
2013-04-01 14:38:00,68.2,21.7,29.94,NNE,33,0.0,3.1,17,0.00,,,0.00,WeatherCatV1.12B45,2013-04-01 21:38:00,
2013-04-01 14:43:00,68.4,25.7,29.94,NW,317,2.7,4.9,20,0.00,,,0.00,WeatherCatV1.12B45,2013-04-01 21:43:00,
2013-04-01 14:48:00,68.9,22.3,29.94,SW,236,2.7,4.0,17,0.00,,,0.00,WeatherCatV1.12B45,2013-04-01 21:48:00,
2013-04-01 14:53:00,69.1,22.4,29.94,SSW,213,3.6,3.6,17,0.00,,,0.00,WeatherCatV1.12B45,2013-04-01 21:53:00,
2013-04-01 14:58:00,69.1,19.5,29.94,South,187,3.1,3.6,15,0.00,,,0.00,WeatherCatV1.12B45,2013-04-01 21:58:00,
2013-04-01 15:03:00,69.1,19.5,29.94,South,173,0.0,0.0,15,0.00,,,0.00,WeatherCatV1.12B45,2013-04-01 22:03:00,
2013-04-01 15:08:00,69.1,19.5,29.94,NW,311,3.6,4.5,15,0.00,,,0.00,WeatherCatV1.12B45,2013-04-01 22:08:00,
2013-04-01 15:13:00,68.7,19.2,29.94,NNW,346,3.1,4.0,15,0.00,,,0.00,WeatherCatV1.12B45,2013-04-01 22:13:00,
2013-04-01 15:18:00,68.7,19.2,29.94,NW,319,3.1,4.9,15,0.00,,,0.00,WeatherCatV1.12B45,2013-04-01 22:18:00,
2013-04-01 15:23:00,69.1,22.4,29.94,West,279,3.1,4.0,17,0.00,,,0.00,WeatherCatV1.12B45,2013-04-01 22:23:00,
2013-04-01 15:28:00,69.1,19.5,29.94,WNW,294,0.0,0.0,15,0.00,,,0.00,WeatherCatV1.12B45,2013-04-01 22:28:00,
2013-04-01 15:33:00,68.5,19.1,29.91,NW,306,2.2,4.0,15,0.00,,,0.00,WeatherCatV1.12B45,2013-04-01 22:33:00,
2013-04-01 15:38:00,68.5,19.1,29.91,ESE,116,0.0,0.0,15,0.00,,,0.00,WeatherCatV1.12B45,2013-04-01 22:38:00,
2013-04-01 15:43:00,68.5,13.9,29.91,ESE,103,3.1,3.6,12,0.00,,,0.00,WeatherCatV1.12B45,2013-04-01 22:43:00,
2013-04-01 15:48:00,68.5,13.9,29.91,SE,126,2.2,3.6,12,0.00,,,0.00,WeatherCatV1.12B45,2013-04-01 22:48:00,
2013-04-01 15:53:00,68.5,19.1,29.91,SSW,197,3.1,3.1,15,0.00,,,0.00,WeatherCatV1.12B45,2013-04-01 22:53:00,
2013-04-01 15:58:00,68.7,19.2,29.91,South,183,4.5,4.5,15,0.00,,,0.00,WeatherCatV1.12B45,2013-04-01 22:58:00,
2013-04-01 16:03:00,68.7,19.2,29.91,NE,36,0.0,0.0,15,0.00,,,0.00,WeatherCatV1.12B45,2013-04-01 23:03:00,
2013-04-01 16:08:00,68.5,19.1,29.91,West,259,0.0,0.0,15,0.00,,,0.00,WeatherCatV1.12B45,2013-04-01 23:08:00,
2013-04-01 16:13:00,68.5,19.1,29.91,NNW,335,4.9,6.3,15,0.00,,,0.00,WeatherCatV1.12B45,2013-04-01 23:13:00,
2013-04-01 16:18:00,68.5,19.1,29.91,SSW,212,2.7,2.7,15,0.00,,,0.00,WeatherCatV1.12B45,2013-04-01 23:18:00,
2013-04-01 16:23:00,68.5,19.1,29.91,SW,233,0.0,0.0,15,0.00,,,0.00,WeatherCatV1.12B45,2013-04-01 23:23:00,
2013-04-01 16:28:00,68.2,18.8,29.91,NNW,339,3.6,3.6,15,0.00,,,0.00,WeatherCatV1.12B45,2013-04-01 23:28:00,
2013-04-01 16:33:00,68.0,18.6,29.91,NNW,345,4.9,6.3,15,0.00,,,0.00,WeatherCatV1.12B45,2013-04-01 23:33:00,
2013-04-01 16:38:00,67.6,13.2,29.91,SW,234,0.0,0.0,12,0.00,,,0.00,WeatherCatV1.12B45,2013-04-01 23:38:00,
2013-04-01 16:43:00,67.1,12.8,29.91,NE,48,2.2,2.2,12,0.00,,,0.00,WeatherCatV1.12B45,2013-04-01 23:43:00,
2013-04-01 16:48:00,67.3,12.9,29.91,NNW,336,0.0,3.6,12,0.00,,,0.00,WeatherCatV1.12B45,2013-04-01 23:48:00,
2013-04-01 16:53:00,67.3,12.9,29.91,SW,235,3.1,5.4,12,0.00,,,0.00,WeatherCatV1.12B45,2013-04-01 23:53:00,
2013-04-01 16:58:00,67.1,12.8,29.91,WSW,244,0.0,0.0,12,0.00,,,0.00,WeatherCatV1.12B45,2013-04-01 23:58:00,
2013-04-01 17:03:00,66.9,12.7,29.91,NW,322,0.0,0.0,12,0.00,,,0.00,WeatherCatV1.12B45,2013-04-02 00:03:00,
2013-04-01 17:08:00,66.6,12.4,29.91,NNW,331,0.0,0.0,12,0.00,,,0.00,WeatherCatV1.12B45,2013-04-02 00:08:00,
2013-04-01 17:13:00,66.2,17.2,29.91,NNW,331,0.0,0.0,15,0.00,,,0.00,WeatherCatV1.12B45,2013-04-02 00:13:00,
2013-04-01 17:18:00,66.0,13.8,29.91,South,169,0.0,0.0,13,0.00,,,0.00,WeatherCatV1.12B45,2013-04-02 00:18:00,
2013-04-01 17:23:00,65.8,16.9,29.91,NNW,334,0.0,0.0,15,0.00,,,0.00,WeatherCatV1.12B45,2013-04-02 00:23:00,
2013-04-01 17:28:00,65.7,13.5,29.91,North,357,0.0,0.0,13,0.00,,,0.00,WeatherCatV1.12B45,2013-04-02 00:28:00,
2013-04-01 17:33:00,65.7,16.8,29.91,North,357,0.0,0.0,15,0.00,,,0.00,WeatherCatV1.12B45,2013-04-02 00:33:00,
2013-04-01 17:38:00,65.3,16.5,29.91,North,357,0.0,0.0,15,0.00,,,0.00,WeatherCatV1.12B45,2013-04-02 00:38:00,
2013-04-01 17:43:00,64.8,16.0,29.91,North,357,0.0,0.0,15,0.00,,,0.00,WeatherCatV1.12B45,2013-04-02 00:43:00,
2013-04-01 17:48:00,64.4,15.8,29.91,North,357,0.0,0.0,15,0.00,,,0.00,WeatherCatV1.12B45,2013-04-02 00:48:00,
2013-04-01 17:53:00,63.9,19.5,29.91,North,357,0.0,0.0,18,0.00,,,0.00,WeatherCatV1.12B45,2013-04-02 00:53:00,
2013-04-01 17:58:00,63.5,16.5,29.91,North,357,0.0,0.0,16,0.00,,,0.00,WeatherCatV1.12B45,2013-04-02 00:58:00,
2013-04-01 18:03:00,63.1,16.2,29.91,North,357,0.0,0.0,16,0.00,,,0.00,WeatherCatV1.12B45,2013-04-02 01:03:00,
2013-04-01 18:08:00,62.6,18.5,29.91,North,357,0.0,0.0,18,0.00,,,0.00,WeatherCatV1.12B45,2013-04-02 01:08:00,
2013-04-01 18:13:00,62.2,19.5,29.91,North,357,0.0,0.0,19,0.00,,,0.00,WeatherCatV1.12B45,2013-04-02 01:13:00,
2013-04-01 18:18:00,61.9,21.5,29.91,North,357,0.0,0.0,21,0.00,,,0.00,WeatherCatV1.12B45,2013-04-02 01:18:00,
2013-04-01 18:23:00,61.5,21.2,29.91,North,357,0.0,0.0,21,0.00,,,0.00,WeatherCatV1.12B45,2013-04-02 01:23:00,
2013-04-01 18:28:00,61.2,20.9,29.91,North,357,0.0,0.0,21,0.00,,,0.00,WeatherCatV1.12B45,2013-04-02 01:28:00,
2013-04-01 18:33:00,61.0,20.8,29.91,North,357,0.0,0.0,21,0.00,,,0.00,WeatherCatV1.12B45,2013-04-02 01:33:00,
2013-04-01 18:38:00,60.6,23.6,29.91,North,357,0.0,0.0,24,0.00,,,0.00,WeatherCatV1.12B45,2013-04-02 01:38:00,
2013-04-01 18:43:00,60.4,23.5,29.91,North,357,0.0,0.0,24,0.00,,,0.00,WeatherCatV1.12B45,2013-04-02 01:43:00,
2013-04-01 18:48:00,60.1,23.2,29.91,North,357,0.0,0.0,24,0.00,,,0.00,WeatherCatV1.12B45,2013-04-02 01:48:00,
2013-04-01 18:53:00,59.9,23.0,29.91,North,357,0.0,0.0,24,0.00,,,0.00,WeatherCatV1.12B45,2013-04-02 01:53:00,
2013-04-01 18:58:00,59.4,22.6,29.91,North,357,0.0,0.0,24,0.00,,,0.00,WeatherCatV1.12B45,2013-04-02 01:58:00,
2013-04-01 19:03:00,59.2,22.4,29.91,North,357,0.0,0.0,24,0.00,,,0.00,WeatherCatV1.12B45,2013-04-02 02:03:00,
2013-04-01 19:08:00,59.0,22.3,29.91,North,357,0.0,0.0,24,0.00,,,0.00,WeatherCatV1.12B45,2013-04-02 02:08:00,
2013-04-01 19:13:00,58.6,22.9,29.91,North,357,0.0,0.0,25,0.00,,,0.00,WeatherCatV1.12B45,2013-04-02 02:13:00,
2013-04-01 19:18:00,58.5,22.8,29.91,North,357,0.0,0.0,25,0.00,,,0.00,WeatherCatV1.12B45,2013-04-02 02:18:00,
2013-04-01 19:23:00,58.3,22.6,29.91,WSW,239,0.0,0.0,25,0.00,,,0.00,WeatherCatV1.12B45,2013-04-02 02:23:00,
2013-04-01 19:28:00,58.1,22.5,29.91,WSW,239,0.0,0.0,25,0.00,,,0.00,WeatherCatV1.12B45,2013-04-02 02:28:00,
2013-04-01 19:33:00,58.1,22.5,29.91,WSW,239,0.0,0.0,25,0.00,,,0.00,WeatherCatV1.12B45,2013-04-02 02:33:00,
2013-04-01 19:38:00,57.9,22.3,29.91,WSW,240,0.0,0.0,25,0.00,,,0.00,WeatherCatV1.12B45,2013-04-02 02:38:00,
2013-04-01 19:43:00,57.7,22.2,29.91,WSW,239,0.0,0.0,25,0.00,,,0.00,WeatherCatV1.12B45,2013-04-02 02:43:00,
2013-04-01 19:48:00,57.4,21.9,29.91,WSW,239,0.0,0.0,25,0.00,,,0.00,WeatherCatV1.12B45,2013-04-02 02:48:00,
2013-04-01 19:53:00,57.2,21.7,29.91,WSW,239,0.0,0.0,25,0.00,,,0.00,WeatherCatV1.12B45,2013-04-02 02:53:00,
2013-04-01 19:58:00,57.2,21.7,29.91,WSW,239,0.0,0.0,25,0.00,,,0.00,WeatherCatV1.12B45,2013-04-02 02:58:00,
2013-04-01 20:03:00,57.2,21.7,29.91,WSW,239,0.0,0.0,25,0.00,,,0.00,WeatherCatV1.12B45,2013-04-02 03:03:00,
2013-04-01 20:08:00,57.2,21.7,29.91,WSW,239,0.0,0.0,25,0.00,,,0.00,WeatherCatV1.12B45,2013-04-02 03:08:00,
2013-04-01 20:13:00,56.8,21.4,29.91,WSW,238,0.0,0.0,25,0.00,,,0.00,WeatherCatV1.12B45,2013-04-02 03:13:00,
2013-04-01 20:18:00,56.8,21.4,29.94,SW,230,0.0,0.0,25,0.00,,,0.00,WeatherCatV1.12B45,2013-04-02 03:18:00,
2013-04-01 20:23:00,56.8,21.4,29.94,SW,226,3.1,3.6,25,0.00,,,0.00,WeatherCatV1.12B45,2013-04-02 03:23:00,
2013-04-01 20:28:00,57.4,21.9,29.94,SW,226,3.6,4.0,25,0.00,,,0.00,WeatherCatV1.12B45,2013-04-02 03:28:00,
2013-04-01 20:33:00,57.6,22.0,29.94,SW,218,4.0,4.0,25,0.00,,,0.00,WeatherCatV1.12B45,2013-04-02 03:33:00,
2013-04-01 20:38:00,57.9,22.3,29.94,SW,223,5.4,5.4,25,0.00,,,0.00,WeatherCatV1.12B45,2013-04-02 03:38:00,
2013-04-01 20:43:00,57.9,22.3,29.94,SW,221,3.1,4.0,25,0.00,,,0.00,WeatherCatV1.12B45,2013-04-02 03:43:00,
2013-04-01 20:48:00,57.7,22.2,29.94,SW,219,3.1,3.1,25,0.00,,,0.00,WeatherCatV1.12B45,2013-04-02 03:48:00,
2013-04-01 20:53:00,57.2,21.7,29.94,SW,215,2.7,4.0,25,0.00,,,0.00,WeatherCatV1.12B45,2013-04-02 03:53:00,
2013-04-01 20:58:00,56.7,22.2,29.94,SW,224,2.2,3.1,26,0.00,,,0.00,WeatherCatV1.12B45,2013-04-02 03:58:00,
2013-04-01 21:00:00,56.5,22.0,29.94,SW,229,0.0,0.0,26,0.00,,,0.00,WeatherCatV1.12B45,2013-04-02 04:00:00,
2013-04-01 21:01:00,56.3,21.9,29.94,SW,229,0.0,0.0,26,0.00,,,0.00,WeatherCatV1.12B45,2013-04-02 04:01:00,
2013-04-01 21:06:00,55.9,21.6,29.94,SW,229,0.0,0.0,26,0.00,,,0.00,WeatherCatV1.12B45,2013-04-02 04:06:00,
2013-04-01 21:11:00,55.4,21.1,29.94,SSW,211,2.7,4.0,26,0.00,,,0.00,WeatherCatV1.12B45,2013-04-02 04:11:00,
2013-04-01 21:16:00,55.4,22.0,29.94,SSE,168,3.1,4.0,27,0.00,,,0.00,WeatherCatV1.12B45,2013-04-02 04:16:00,
2013-04-01 21:21:00,55.4,22.0,29.94,SW,219,3.1,3.6,27,0.00,,,0.00,WeatherCatV1.12B45,2013-04-02 04:21:00,
2013-04-01 21:26:00,55.0,22.5,29.94,SSW,206,3.1,3.6,28,0.00,,,0.00,WeatherCatV1.12B45,2013-04-02 04:26:00,
2013-04-01 21:31:00,54.7,22.2,29.94,SW,223,2.7,3.6,28,0.00,,,0.00,WeatherCatV1.12B45,2013-04-02 04:31:00,
2013-04-01 21:36:00,54.3,21.9,29.94,SW,229,2.2,3.1,28,0.00,,,0.00,WeatherCatV1.12B45,2013-04-02 04:36:00,
2013-04-01 21:41:00,54.0,21.6,29.94,SW,227,0.0,0.0,28,0.00,,,0.00,WeatherCatV1.12B45,2013-04-02 04:41:00,
2013-04-01 21:46:00,53.6,22.1,29.94,SW,228,2.7,3.1,29,0.00,,,0.00,WeatherCatV1.12B45,2013-04-02 04:46:00,
2013-04-01 21:51:00,53.4,22.0,29.94,SW,229,0.0,3.1,29,0.00,,,0.00,WeatherCatV1.12B45,2013-04-02 04:51:00,
2013-04-01 21:56:00,53.2,22.6,29.94,SW,227,3.1,3.1,30,0.00,,,0.00,WeatherCatV1.12B45,2013-04-02 04:56:00,
2013-04-01 22:01:00,53.1,23.2,29.94,SW,219,2.2,3.1,31,0.00,,,0.00,WeatherCatV1.12B45,2013-04-02 05:01:00,
2013-04-01 22:06:00,52.9,23.1,29.94,SW,231,2.2,3.1,31,0.00,,,0.00,WeatherCatV1.12B45,2013-04-02 05:06:00,
2013-04-01 22:11:00,52.7,22.9,29.94,SW,226,3.1,3.1,31,0.00,,,0.00,WeatherCatV1.12B45,2013-04-02 05:11:00,
2013-04-01 22:16:00,52.5,22.8,29.94,SW,224,2.7,2.7,31,0.00,,,0.00,WeatherCatV1.12B45,2013-04-02 05:16:00,
2013-04-01 22:21:00,52.3,22.6,29.94,SSW,207,3.6,4.0,31,0.00,,,0.00,WeatherCatV1.12B45,2013-04-02 05:21:00,
2013-04-01 22:26:00,52.5,22.8,29.94,SSW,209,3.6,3.6,31,0.00,,,0.00,WeatherCatV1.12B45,2013-04-02 05:26:00,
2013-04-01 22:31:00,52.5,23.5,29.94,SSW,207,2.7,3.6,32,0.00,,,0.00,WeatherCatV1.12B45,2013-04-02 05:31:00,
2013-04-01 22:36:00,52.3,22.6,29.94,SW,224,0.0,3.6,31,0.00,,,0.00,WeatherCatV1.12B45,2013-04-02 05:36:00,
2013-04-01 22:41:00,53.1,23.2,29.94,SSW,200,4.0,6.7,31,0.00,,,0.00,WeatherCatV1.12B45,2013-04-02 05:41:00,
2013-04-01 22:46:00,53.6,22.9,29.94,SSW,207,2.2,4.0,30,0.00,,,0.00,WeatherCatV1.12B45,2013-04-02 05:46:00,
2013-04-01 22:51:00,53.1,23.2,29.94,SW,226,0.0,3.1,31,0.00,,,0.00,WeatherCatV1.12B45,2013-04-02 05:51:00,
2013-04-01 22:56:00,52.2,22.5,29.94,South,178,0.0,0.0,31,0.00,,,0.00,WeatherCatV1.12B45,2013-04-02 05:56:00,
2013-04-01 23:01:00,51.6,22.7,29.94,SSW,207,0.0,0.0,32,0.00,,,0.00,WeatherCatV1.12B45,2013-04-02 06:01:00,
2013-04-01 23:06:00,51.1,23.7,29.94,SW,231,3.1,3.1,34,0.00,,,0.00,WeatherCatV1.12B45,2013-04-02 06:06:00,
2013-04-01 23:11:00,50.7,23.4,29.94,SSW,209,2.2,2.7,34,0.00,,,0.00,WeatherCatV1.12B45,2013-04-02 06:11:00,
2013-04-01 23:16:00,50.5,23.9,29.94,SW,227,3.1,3.1,35,0.00,,,0.00,WeatherCatV1.12B45,2013-04-02 06:16:00,
2013-04-01 23:21:00,50.4,24.4,29.94,SSW,213,4.0,4.0,36,0.00,,,0.00,WeatherCatV1.12B45,2013-04-02 06:21:00,
2013-04-01 23:26:00,50.9,24.2,29.94,SW,216,3.6,5.8,35,0.00,,,0.00,WeatherCatV1.12B45,2013-04-02 06:26:00,
2013-04-01 23:31:00,51.6,24.2,29.94,SW,214,3.1,3.1,34,0.00,,,0.00,WeatherCatV1.12B45,2013-04-02 06:31:00,
2013-04-01 23:36:00,51.8,23.6,29.94,West,264,0.0,3.6,33,0.00,,,0.00,WeatherCatV1.12B45,2013-04-02 06:36:00,
2013-04-01 23:41:00,52.2,23.9,29.94,SW,219,0.0,0.0,33,0.00,,,0.00,WeatherCatV1.12B45,2013-04-02 06:41:00,
2013-04-01 23:46:00,51.6,24.2,29.94,East,93,0.0,0.0,34,0.00,,,0.00,WeatherCatV1.12B45,2013-04-02 06:46:00,
2013-04-01 23:51:00,51.3,24.6,29.94,East,79,0.0,0.0,35,0.00,,,0.00,WeatherCatV1.12B45,2013-04-02 06:51:00,
2013-04-01 23:56:00,51.1,24.4,29.94,SW,225,0.0,0.0,35,0.00,,,0.00,WeatherCatV1.12B45,2013-04-02 06:56:00,